createdAt,value
2022-09-10T00:00:41.534Z,63.99
2022-09-10T00:05:48.367Z,63.32
2022-09-10T00:10:54.450Z,63.74
2022-09-10T00:15:59.471Z,63.94
2022-09-10T00:21:08.091Z,64.15
2022-09-10T00:26:18.243Z,63.50
2022-09-10T00:31:23.655Z,63.88
2022-09-10T00:36:28.822Z,63.62
2022-09-10T00:41:36.160Z,63.54
2022-09-10T00:46:44.744Z,64.16
2022-09-10T00:51:50.394Z,64.30
2022-09-10T00:57:00.013Z,63.89
2022-09-10T01:02:05.029Z,64.16
2022-09-10T01:07:11.254Z,64.48
2022-09-10T01:12:32.105Z,64.49
2022-09-10T01:17:52.419Z,63.79
2022-09-10T01:23:17.779Z,64.05
2022-09-10T01:28:30.184Z,63.94
2022-09-10T01:33:37.971Z,63.95
2022-09-10T01:38:43.987Z,63.95
2022-09-10T01:43:49.168Z,64.20
2022-09-10T01:49:15.621Z,64.10
2022-09-10T01:54:29.392Z,64.51
2022-09-10T01:59:42.735Z,63.96
2022-09-10T02:04:48.234Z,64.26
2022-09-10T02:09:53.057Z,63.96
2022-09-10T02:14:59.064Z,64.51
2022-09-10T02:20:04.962Z,64.24
2022-09-10T02:25:09.998Z,64.04
2022-09-10T02:30:16.979Z,64.03
2022-09-10T02:35:20.902Z,63.90
2022-09-10T02:40:25.231Z,64.03
2022-09-10T02:45:30.861Z,64.04
2022-09-10T02:50:35.367Z,63.93
2022-09-10T02:55:39.663Z,64.68
2022-09-10T03:00:46.533Z,63.93
2022-09-10T03:05:50.742Z,64.23
2022-09-10T03:10:55.337Z,64.27
2022-09-10T03:16:01.134Z,63.62
2022-09-10T03:21:13.946Z,63.76
2022-09-10T03:26:19.530Z,64.13
2022-09-10T03:31:24.751Z,64.03
2022-09-10T03:36:30.202Z,63.42
2022-09-10T03:41:34.226Z,63.47
2022-09-10T03:46:39.878Z,63.14
2022-09-10T03:51:43.221Z,63.28
2022-09-10T03:56:47.469Z,62.69
2022-09-10T04:01:53.148Z,62.62
2022-09-10T04:06:57.411Z,59.68
2022-09-10T04:12:01.123Z,43.47
2022-09-10T04:17:06.840Z,36.01
2022-09-10T04:22:10.257Z,35.57
2022-09-10T04:27:14.670Z,44.13
2022-09-10T04:32:19.485Z,49.36
2022-09-10T04:37:23.355Z,52.71
2022-09-10T04:42:26.794Z,52.86
2022-09-10T04:47:32.402Z,54.67
2022-09-10T04:52:36.139Z,54.97
2022-09-10T04:57:40.351Z,55.09
2022-09-10T05:02:46.610Z,48.55
2022-09-10T05:07:50.511Z,33.03
2022-09-10T05:12:53.967Z,26.55
2022-09-10T05:18:00.254Z,22.65
2022-09-10T05:23:03.775Z,20.33
2022-09-10T05:28:07.400Z,18.39
2022-09-10T05:33:12.856Z,15.50
2022-09-10T05:38:16.920Z,15.73
2022-09-10T05:43:20.820Z,13.89
2022-09-10T05:48:25.821Z,12.82
2022-09-10T05:53:29.236Z,12.82
2022-09-10T05:58:35.289Z,11.30
2022-09-10T06:03:40.598Z,10.75
2022-09-10T06:08:44.041Z,10.27
2022-09-10T06:13:47.646Z,9.89
2022-09-10T06:18:53.800Z,9.23
2022-09-10T06:23:57.160Z,8.90
2022-09-10T06:29:00.850Z,9.28
2022-09-10T06:34:05.705Z,7.93
2022-09-10T06:39:10.821Z,8.17
2022-09-10T06:44:14.455Z,7.38
2022-09-10T06:49:19.567Z,7.01
2022-09-10T06:54:23.026Z,7.31
2022-09-10T06:59:26.418Z,6.94
2022-09-10T07:04:32.161Z,7.49
2022-09-10T07:09:36.674Z,7.48
2022-09-10T07:14:41.182Z,6.80
2022-09-10T07:19:46.732Z,6.66
2022-09-10T07:24:51.814Z,7.01
2022-09-10T07:29:56.732Z,6.92
2022-09-10T07:35:02.006Z,7.11
2022-09-10T07:40:08.552Z,6.45
2022-09-10T07:45:15.910Z,7.18
2022-09-10T07:50:22.845Z,7.01
2022-09-10T07:55:26.556Z,6.92
2022-09-10T08:00:31.287Z,7.91
2022-09-10T08:05:38.468Z,8.72
2022-09-10T08:10:42.846Z,8.78
2022-09-10T08:15:48.520Z,8.92
2022-09-10T08:20:57.355Z,9.93
2022-09-10T08:26:01.552Z,10.80
2022-09-10T08:31:09.554Z,11.64
2022-09-10T08:36:17.830Z,13.71
2022-09-10T08:41:30.557Z,15.62
2022-09-10T08:46:39.545Z,16.84
2022-09-10T08:51:50.955Z,19.62
2022-09-10T08:56:59.272Z,20.40
2022-09-10T09:02:37.903Z,20.78
2022-09-10T09:07:43.509Z,21.71
2022-09-10T09:13:00.121Z,23.32
2022-09-10T09:18:18.682Z,24.96
2022-09-10T09:23:27.076Z,24.38
2022-09-10T09:28:38.806Z,25.07
2022-09-10T09:33:43.040Z,26.21
2022-09-10T09:38:52.499Z,26.83
2022-09-10T09:44:00.075Z,27.10
2022-09-10T09:49:05.942Z,27.42
2022-09-10T09:54:56.625Z,27.83
2022-09-10T09:59:42.700Z,27.76
2022-09-10T10:04:56.074Z,27.43
2022-09-10T10:10:03.028Z,27.89
2022-09-10T10:15:36.920Z,27.40
2022-09-10T10:20:41.502Z,28.14
2022-09-10T10:25:50.389Z,27.28
2022-09-10T10:30:56.720Z,28.28
2022-09-10T10:36:10.210Z,28.77
2022-09-10T10:41:54.875Z,28.23
2022-09-10T10:47:17.864Z,28.67
2022-09-10T10:52:30.288Z,28.50
2022-09-10T10:57:59.545Z,28.42
2022-09-10T11:03:07.094Z,28.10
2022-09-10T11:08:20.682Z,29.74
2022-09-10T11:13:32.002Z,29.89
2022-09-10T11:18:42.914Z,30.31
2022-09-10T11:23:52.368Z,30.36
2022-09-10T11:29:05.638Z,30.30
2022-09-10T11:34:16.264Z,29.95
2022-09-10T11:39:26.623Z,30.18
2022-09-10T11:44:42.148Z,29.70
2022-09-10T11:49:52.757Z,30.26
2022-09-10T11:54:57.773Z,29.90
2022-09-10T12:00:12.819Z,30.09
2022-09-10T12:05:24.986Z,30.05
2022-09-10T12:10:36.428Z,30.45
2022-09-10T12:15:42.400Z,30.41
2022-09-10T12:20:53.506Z,30.25
2022-09-10T12:26:03.563Z,29.84
2022-09-10T12:31:09.019Z,29.92
2022-09-10T12:36:14.581Z,29.37
2022-09-10T12:41:57.487Z,28.88
2022-09-10T12:47:44.267Z,29.72
2022-09-10T12:53:05.060Z,29.87
2022-09-10T12:58:26.080Z,30.12
2022-09-10T13:03:32.370Z,30.33
2022-09-10T13:08:42.402Z,30.70
2022-09-10T13:13:52.236Z,29.86
2022-09-10T13:19:36.041Z,30.35
2022-09-10T13:25:00.974Z,30.31
2022-09-10T13:30:12.497Z,30.35
2022-09-10T13:35:53.275Z,30.13
2022-09-10T13:41:16.427Z,29.94
2022-09-10T13:46:29.391Z,30.04
2022-09-10T13:51:40.144Z,30.36
2022-09-10T13:56:45.858Z,30.89
2022-09-10T14:01:51.246Z,31.15
2022-09-10T14:06:59.981Z,31.37
2022-09-10T14:12:09.493Z,31.31
2022-09-10T14:17:18.244Z,31.00
2022-09-10T14:22:26.143Z,31.89
2022-09-10T14:27:32.447Z,31.74
2022-09-10T14:32:37.498Z,31.67
2022-09-10T14:37:43.577Z,32.61
2022-09-10T14:42:48.453Z,32.36
2022-09-10T14:47:54.509Z,32.24
2022-09-10T14:52:59.940Z,32.17
2022-09-10T14:58:04.194Z,31.72
2022-09-10T15:03:07.931Z,31.74
2022-09-10T15:08:13.709Z,31.37
2022-09-10T15:13:19.204Z,31.12
2022-09-10T15:18:23.912Z,31.51
2022-09-10T15:23:29.416Z,32.55
2022-09-10T15:28:34.522Z,33.09
2022-09-10T15:33:38.084Z,34.86
2022-09-10T15:38:43.687Z,35.59
2022-09-10T15:43:47.923Z,36.47
2022-09-10T15:48:53.297Z,37.13
2022-09-10T15:54:02.960Z,38.43
2022-09-10T15:59:09.729Z,39.88
2022-09-10T16:04:15.122Z,40.83
2022-09-10T16:09:21.310Z,42.53
2022-09-10T16:14:26.732Z,43.14
2022-09-10T16:19:32.048Z,44.06
2022-09-10T16:24:37.692Z,45.22
2022-09-10T16:29:43.789Z,46.15
2022-09-10T16:34:47.483Z,46.99
2022-09-10T16:39:53.313Z,47.37
2022-09-10T16:44:57.863Z,48.07
2022-09-10T16:50:02.184Z,48.41
2022-09-10T16:55:09.044Z,49.46
2022-09-10T17:00:17.875Z,49.75
2022-09-10T17:05:24.138Z,50.67
2022-09-10T17:10:30.506Z,51.63
2022-09-10T17:15:34.075Z,51.29
2022-09-10T17:20:40.408Z,52.02
2022-09-10T17:25:46.970Z,52.88
2022-09-10T17:30:56.790Z,53.12
2022-09-10T17:36:04.470Z,53.36
2022-09-10T17:41:10.236Z,53.63
2022-09-10T17:46:15.926Z,53.94
2022-09-10T17:51:21.817Z,54.33
2022-09-10T17:56:28.197Z,54.51
2022-09-10T18:01:34.858Z,54.18
2022-09-10T18:06:39.645Z,54.21
2022-09-10T18:11:46.136Z,55.34
2022-09-10T18:16:51.534Z,54.49
2022-09-10T18:21:55.966Z,55.02
2022-09-10T18:27:05.433Z,55.28
2022-09-10T18:32:09.961Z,55.08
2022-09-10T18:37:14.734Z,55.56
2022-09-10T18:42:20.309Z,55.60
2022-09-10T18:47:43.749Z,56.19
2022-09-10T18:52:48.570Z,55.45
2022-09-10T18:57:53.674Z,56.48
2022-09-10T19:02:57.149Z,55.76
2022-09-10T19:08:00.781Z,55.91
2022-09-10T19:13:06.193Z,56.96
2022-09-10T19:18:10.211Z,56.63
2022-09-10T19:23:19.634Z,56.58
2022-09-10T19:28:26.068Z,56.56
2022-09-10T19:33:29.616Z,56.49
2022-09-10T19:38:37.906Z,57.20
2022-09-10T19:43:42.915Z,58.03
2022-09-10T19:48:48.560Z,57.57
2022-09-10T19:53:51.957Z,57.57
2022-09-10T19:58:58.703Z,57.70
2022-09-10T20:04:05.063Z,57.83
2022-09-10T20:09:11.782Z,58.28
2022-09-10T20:14:16.712Z,58.46
2022-09-10T20:19:22.735Z,57.92
2022-09-10T20:24:27.995Z,57.37
2022-09-10T20:29:32.979Z,57.59
2022-09-10T20:34:36.843Z,57.82
2022-09-10T20:39:42.848Z,57.94
2022-09-10T20:44:47.571Z,58.24
2022-09-10T20:49:51.010Z,58.04
2022-09-10T20:54:55.660Z,58.38
2022-09-10T21:00:01.291Z,58.16
2022-09-10T21:05:14.872Z,58.30
2022-09-10T21:10:20.259Z,58.32
2022-09-10T21:15:25.318Z,58.81
2022-09-10T21:20:29.282Z,57.26
2022-09-10T21:25:34.655Z,58.73
2022-09-10T21:30:40.167Z,58.36
2022-09-10T21:35:44.470Z,59.31
2022-09-10T21:40:57.353Z,58.84
2022-09-10T21:46:04.729Z,59.23
2022-09-10T21:51:11.721Z,59.17
2022-09-10T21:56:18.806Z,59.51
2022-09-10T22:01:26.726Z,59.26
2022-09-10T22:06:32.250Z,59.27
2022-09-10T22:11:38.686Z,59.50
2022-09-10T22:16:44.815Z,59.73
2022-09-10T22:21:48.990Z,59.77
2022-09-10T22:26:52.416Z,59.84
2022-09-10T22:31:58.070Z,59.83
2022-09-10T22:37:03.370Z,59.75
2022-09-10T22:42:08.359Z,59.69
2022-09-10T22:47:13.929Z,59.65
2022-09-10T22:52:17.307Z,60.05
2022-09-10T22:57:21.348Z,60.40
2022-09-10T23:02:26.070Z,60.46
2022-09-10T23:07:30.136Z,59.76
2022-09-10T23:12:34.806Z,59.79
2022-09-10T23:17:40.885Z,60.87
2022-09-10T23:22:44.245Z,60.57
2022-09-10T23:27:51.273Z,60.58
2022-09-10T23:32:56.258Z,61.63
2022-09-10T23:38:00.429Z,61.58
2022-09-10T23:43:03.790Z,60.76
2022-09-10T23:48:09.417Z,60.68
2022-09-10T23:53:12.806Z,60.59
2022-09-10T23:58:17.909Z,60.61
